Time;durP1;ratioP1;P1;durP2;ratioP2;P2;SDS_P1;SDS_P2;PMS_P1;PMS_P2;Temp;Humidity;BMP_temperature;BMP_pressure;BME280_temperature;BME280_humidity;BME280_pressure;Samples;Min_cycle;Max_cycle;Signal;HPM_P1;HPM_P2
2022/11/12 00:00:03;;;;;;;887.45;825.22;;;;;;;8.65;69.23;102706.50;688714;28;135999;-62
2022/11/12 00:00:43;;;;;;;823.15;762.95;;;;;;;8.66;69.75;102714.47;688638;28;137255;-62
2022/11/12 00:01:24;;;;;;;879.13;817.28;;;;;;;8.64;69.09;102719.13;688736;28;135988;-61
2022/11/12 00:02:04;;;;;;;874.72;812.88;;;;;;;8.62;69.41;102704.94;688709;28;138046;-61
2022/11/12 00:02:43;;;;;;;867.15;805.60;;;;;;;8.59;69.47;102710.53;688600;28;137682;-61
2022/11/12 00:03:24;;;;;;;896.08;833.60;;;;;;;8.61;69.61;102713.13;688648;28;137195;-62
2022/11/12 00:04:04;;;;;;;873.92;811.83;;;;;;;8.60;69.61;102704.16;687847;28;156379;-62
2022/11/12 00:04:43;;;;;;;885.85;823.40;;;;;;;8.60;69.46;102711.38;688231;28;138534;-62
2022/11/12 00:05:24;;;;;;;883.90;821.70;;;;;;;8.60;69.43;102714.09;688654;28;136126;-62
2022/11/12 00:06:04;;;;;;;861.92;800.22;;;;;;;8.60;69.35;102712.25;688725;28;138040;-59
2022/11/12 00:06:44;;;;;;;866.70;804.90;;;;;;;8.58;69.21;102707.97;687692;28;161162;-62
2022/11/12 00:07:25;;;;;;;895.78;832.78;;;;;;;8.57;69.59;102696.31;688543;28;138825;-60
2022/11/12 00:08:05;;;;;;;885.10;822.63;;;;;;;8.57;69.46;102717.84;687851;28;160459;-63
2022/11/12 00:08:46;;;;;;;887.90;825.35;;;;;;;8.56;69.60;102710.78;687977;28;137717;-62
2022/11/12 00:09:25;;;;;;;876.53;814.47;;;;;;;8.56;69.32;102709.94;688613;28;138723;-62
2022/11/12 00:10:07;;;;;;;884.85;822.40;;;;;;;8.56;69.82;102712.63;687923;28;161407;-62
2022/11/12 00:10:49;;;;;;;873.45;811.47;;;;;;;8.56;69.61;102708.06;688475;28;136213;-62
2022/11/12 00:11:29;;;;;;;873.30;811.25;;;;;;;8.56;69.77;102712.63;688708;28;135991;-61
2022/11/12 00:12:08;;;;;;;856.90;795.47;;;;;;;8.55;69.67;102708.19;688750;28;137606;-61
2022/11/12 00:12:49;;;;;;;859.60;798.05;;;;;;;8.55;69.72;102708.19;688601;28;135913;-63
2022/11/12 00:13:29;;;;;;;882.45;820.20;;;;;;;8.53;69.54;102707.47;689283;28;121127;-63
2022/11/12 00:14:10;;;;;;;867.05;805.20;;;;;;;8.53;69.40;102710.16;687076;28;178964;-63
2022/11/12 00:14:50;;;;;;;869.75;807.85;;;;;;;8.52;69.50;102713.81;688659;28;137365;-61
2022/11/12 00:15:30;;;;;;;851.83;790.47;;;;;;;8.50;69.65;102705.84;688728;28;137633;-61
2022/11/12 00:16:11;;;;;;;868.53;806.70;;;;;;;8.48;69.72;102711.34;690366;28;137774;-60
2022/11/12 00:16:50;;;;;;;882.28;819.90;;;;;;;8.49;69.75;102709.50;690885;28;138008;-60
2022/11/12 00:17:30;;;;;;;851.65;790.25;;;;;;;8.47;69.69;102715.00;691346;28;137535;-62
2022/11/12 00:18:11;;;;;;;874.80;812.60;;;;;;;8.47;69.33;102706.06;687809;28;160629;-60
2022/11/12 00:18:51;;;;;;;882.65;820.20;;;;;;;8.47;69.37;102708.75;689511;28;137551;-64
2022/11/12 00:19:32;;;;;;;855.58;794.17;;;;;;;8.44;69.54;102707.16;690573;28;135721;-63
2022/11/12 00:20:11;;;;;;;858.15;796.63;;;;;;;8.45;69.43;102711.56;691439;28;137494;-63
2022/11/12 00:20:51;;;;;;;860.88;799.25;;;;;;;8.45;69.43;102708.03;691288;28;137642;-63
2022/11/12 00:21:32;;;;;;;864.85;803.05;;;;;;;8.45;69.50;102702.66;690428;28;161461;-61
2022/11/12 00:22:11;;;;;;;868.28;806.33;;;;;;;8.44;69.76;102706.31;691391;28;138687;-62
2022/11/12 00:22:52;;;;;;;847.92;786.63;;;;;;;8.43;69.62;102708.16;691358;28;137468;-63
2022/11/12 00:23:32;;;;;;;873.17;811.13;;;;;;;8.44;69.54;102706.31;690825;28;137616;-62
2022/11/12 00:24:13;;;;;;;881.13;818.72;;;;;;;8.44;69.69;102711.69;694069;28;62341;-62
2022/11/12 00:24:52;;;;;;;870.17;808.15;;;;;;;8.44;69.86;102706.31;691281;28;138849;-63
2022/11/12 00:25:32;;;;;;;875.42;813.28;;;;;;;8.43;69.58;102705.44;691287;28;135958;-61
2022/11/12 00:26:14;;;;;;;850.08;788.75;;;;;;;8.45;70.13;102708.88;691357;28;138607;-63
2022/11/12 00:26:54;;;;;;;865.20;803.35;;;;;;;8.47;69.75;102704.22;690814;28;138377;-63
2022/11/12 00:27:34;;;;;;;875.90;813.65;;;;;;;8.48;69.79;102705.09;688820;28;137699;-63
2022/11/12 00:28:15;;;;;;;893.20;830.45;;;;;;;8.48;69.68;102713.19;688620;28;137370;-63
2022/11/12 00:28:56;;;;;;;890.53;827.90;;;;;;;8.43;70.05;102693.78;687692;28;157771;-63
2022/11/12 00:29:37;;;;;;;876.08;814.03;;;;;;;8.47;69.54;102700.69;688679;28;137505;-63
2022/11/12 00:30:18;;;;;;;874.80;812.67;;;;;;;8.51;69.87;102709.38;688872;28;137266;-63
2022/11/12 00:30:58;;;;;;;867.25;805.28;;;;;;;8.51;69.74;102707.56;688704;28;137397;-63
2022/11/12 00:31:39;;;;;;;873.13;811.05;;;;;;;8.51;69.70;102712.97;688305;28;137634;-60
2022/11/12 00:32:19;;;;;;;873.13;810.95;;;;;;;8.52;69.60;102711.13;690383;28;137385;-62
2022/11/12 00:33:02;;;;;;;864.40;802.65;;;;;;;8.51;69.55;102710.25;690748;28;160898;-62
2022/11/12 00:33:44;;;;;;;868.03;806.10;;;;;;;8.51;69.77;102704.88;690793;28;137739;-63
2022/11/12 00:34:23;;;;;;;879.25;817.05;;;;;;;8.51;69.58;102712.09;691363;28;135863;-63
2022/11/12 00:35:06;;;;;;;888.28;825.45;;;;;;;8.50;69.79;102711.22;691879;28;122355;-63
2022/11/12 00:35:49;;;;;;;863.95;802.03;;;;;;;8.50;69.57;102710.38;690841;28;62213;-64
2022/11/12 00:36:29;;;;;;;860.15;798.35;;;;;;;8.48;69.82;102705.09;688601;28;137793;-62
2022/11/12 00:37:09;;;;;;;883.10;820.53;;;;;;;8.46;69.83;102704.34;688288;28;135807;-63
2022/11/12 00:37:53;;;;;;;871.25;809.25;;;;;;;8.46;69.79;102707.91;688669;28;137448;-63
2022/11/12 00:38:33;;;;;;;886.72;824.35;;;;;;;8.44;69.79;102706.31;687413;28;160462;-63
2022/11/12 00:39:14;;;;;;;885.90;823.63;;;;;;;8.44;69.56;102707.16;688398;28;152021;-60
2022/11/12 00:39:54;;;;;;;894.03;831.33;;;;;;;8.44;69.78;102706.31;688531;28;136125;-62
2022/11/12 00:40:34;;;;;;;886.38;823.90;;;;;;;8.42;69.39;102705.53;688670;28;137976;-62
2022/11/12 00:41:15;;;;;;;872.88;810.88;;;;;;;8.42;69.81;102708.22;688039;28;159024;-63
2022/11/12 00:41:55;;;;;;;891.85;829.15;;;;;;;8.40;69.45;102711.03;688994;28;137346;-62
2022/11/12 00:42:36;;;;;;;881.55;819.15;;;;;;;8.39;69.73;102706.63;691165;28;137681;-63
2022/11/12 00:43:15;;;;;;;865.25;803.38;;;;;;;8.38;69.69;102709.41;691242;28;138805;-63
2022/11/12 00:43:56;;;;;;;856.22;794.63;;;;;;;8.37;69.70;102711.25;690290;28;157201;-63
2022/11/12 00:44:36;;;;;;;837.38;776.63;;;;;;;8.36;69.85;102706.84;691382;28;137467;-63
2022/11/12 00:45:16;;;;;;;834.42;773.60;;;;;;;8.35;69.57;102712.34;691151;28;135992;-63
2022/11/12 00:45:57;;;;;;;864.00;802.30;;;;;;;8.32;69.90;102715.25;693684;28;137747;-63
2022/11/12 00:46:37;;;;;;;862.55;800.90;;;;;;;8.34;69.93;102708.81;693867;28;134606;-63
2022/11/12 00:47:17;;;;;;;874.13;811.95;;;;;;;8.30;69.84;102704.59;693673;28;138445;-62
2022/11/12 00:47:57;;;;;;;889.15;826.58;;;;;;;8.27;69.67;102704.81;693789;28;138331;-62
2022/11/12 00:48:37;;;;;;;875.63;813.50;;;;;;;8.32;69.58;102716.09;691265;28;160957;-62
2022/11/12 00:49:17;;;;;;;894.92;832.20;;;;;;;8.33;69.61;102707.06;689641;28;136019;-62
2022/11/12 00:49:57;;;;;;;877.20;815.08;;;;;;;8.33;69.65;102711.59;688276;28;138844;-62
2022/11/12 00:50:37;;;;;;;870.17;808.17;;;;;;;8.33;69.86;102712.44;688380;28;138519;-62
2022/11/12 00:51:17;;;;;;;880.85;818.47;;;;;;;8.29;69.74;102701.06;688551;28;135951;-62
2022/11/12 00:51:57;;;;;;;880.05;817.70;;;;;;;8.30;69.62;102710.84;688464;28;138040;-65
2022/11/12 00:52:37;;;;;;;878.40;815.97;;;;;;;8.32;69.96;102712.56;688351;28;137342;-62
2022/11/12 00:53:17;;;;;;;896.35;833.58;;;;;;;8.30;69.59;102712.69;688633;28;137695;-62
2022/11/12 00:53:58;;;;;;;885.05;822.47;;;;;;;8.29;69.84;102706.44;687808;28;157311;-62
2022/11/12 00:54:38;;;;;;;878.83;816.50;;;;;;;8.29;69.66;102708.25;689000;28;136023;-62
2022/11/12 00:55:17;;;;;;;872.30;810.28;;;;;;;8.29;69.92;102710.94;689153;28;135971;-63
2022/11/12 00:56:02;;;;;;;911.33;848.13;;;;;;;8.28;69.75;102704.72;688294;28;160521;-63
2022/11/12 00:56:44;;;;;;;881.70;819.38;;;;;;;8.29;69.95;102709.13;688799;28;137391;-62
2022/11/12 00:57:27;;;;;;;868.63;806.42;;;;;;;8.28;69.61;102707.41;691557;28;61860;-63
2022/11/12 00:58:07;;;;;;;877.85;815.67;;;;;;;8.28;69.95;102709.25;689154;28;136018;-64
2022/11/12 00:58:46;;;;;;;887.70;825.13;;;;;;;8.27;69.61;102710.22;688321;28;137520;-63
2022/11/12 00:59:27;;;;;;;888.33;825.85;;;;;;;8.27;69.95;102711.06;689091;28;135986;-64
2022/11/12 01:00:13;;;;;;;891.40;828.80;;;;;;;8.28;69.79;102717.31;689075;28;137523;-64
2022/11/12 01:00:53;;;;;;;897.58;834.50;;;;;;;8.27;69.73;102707.53;688876;28;137777;-62
2022/11/12 01:01:34;;;;;;;880.50;818.22;;;;;;;8.27;69.74;102712.91;690060;28;138842;-64
2022/11/12 01:02:13;;;;;;;873.90;811.88;;;;;;;8.25;69.64;102704.09;691014;28;158835;-63
2022/11/12 01:02:53;;;;;;;888.60;825.92;;;;;;;8.27;69.62;102710.22;691536;28;137783;-63
2022/11/12 01:03:34;;;;;;;880.92;818.55;;;;;;;8.27;69.82;102707.53;691384;28;137363;-63
2022/11/12 01:04:13;;;;;;;876.10;813.88;;;;;;;8.23;69.62;102704.22;691662;28;137698;-63
2022/11/12 01:04:53;;;;;;;896.15;833.13;;;;;;;8.26;69.82;102711.16;689803;28;137741;-62
2022/11/12 01:05:34;;;;;;;866.03;804.13;;;;;;;8.25;69.71;102709.47;688299;28;160610;-63
2022/11/12 01:06:15;;;;;;;853.33;791.67;;;;;;;8.24;70.08;102697.81;688828;28;137554;-64
2022/11/12 01:06:57;;;;;;;895.83;832.97;;;;;;;8.26;70.00;102706.66;687690;28;160626;-63
2022/11/12 01:07:37;;;;;;;902.67;839.80;;;;;;;8.27;69.82;102705.69;689050;28;135941;-61
2022/11/12 01:08:17;;;;;;;889.03;826.67;;;;;;;8.29;69.76;102708.25;689002;28;137783;-63
2022/11/12 01:08:58;;;;;;;879.95;817.65;;;;;;;8.28;69.78;102701.19;688169;28;157281;-63
2022/11/12 01:09:38;;;;;;;872.42;810.40;;;;;;;8.29;69.92;102710.94;690091;28;135987;-64
2022/11/12 01:10:18;;;;;;;862.30;800.78;;;;;;;8.30;70.12;102716.22;691735;28;137800;-63
2022/11/12 01:11:05;;;;;;;880.92;818.60;;;;;;;8.30;70.10;102702.75;691028;28;160457;-64
2022/11/12 01:11:47;;;;;;;905.38;842.40;;;;;;;8.32;69.57;102707.19;688918;28;137578;-64
2022/11/12 01:12:29;;;;;;;892.85;830.22;;;;;;;8.31;69.50;102706.34;689100;28;135792;-64
2022/11/12 01:13:10;;;;;;;893.38;830.78;;;;;;;8.31;69.45;102703.63;688329;28;160583;-64
2022/11/12 01:13:53;;;;;;;880.13;817.85;;;;;;;8.33;69.82;102700.84;688641;28;137236;-64
2022/11/12 01:14:37;;;;;;;856.40;794.95;;;;;;;8.33;69.50;102706.22;693697;28;61820;-63
2022/11/12 01:15:18;;;;;;;860.08;798.40;;;;;;;8.32;69.38;102705.34;694272;28;62206;-63
2022/11/12 01:15:58;;;;;;;855.60;794.08;;;;;;;8.29;69.57;102703.75;691799;28;137508;-63
2022/11/12 01:16:39;;;;;;;893.83;830.97;;;;;;;8.24;69.55;102705.06;691567;28;137562;-63
2022/11/12 01:17:20;;;;;;;875.05;812.63;;;;;;;8.29;69.44;102711.84;691446;28;137911;-64
2022/11/12 01:17:59;;;;;;;891.97;829.22;;;;;;;8.27;69.60;102710.22;691657;28;135961;-64
2022/11/12 01:18:39;;;;;;;864.45;802.58;;;;;;;8.27;69.48;102715.59;691135;28;137791;-64
2022/11/12 01:19:20;;;;;;;894.13;831.50;;;;;;;8.25;69.41;102713.00;691796;28;137521;-63
2022/11/12 01:20:00;;;;;;;879.40;816.97;;;;;;;8.23;69.23;102704.22;691488;28;137703;-63
2022/11/12 01:20:39;;;;;;;887.67;825.28;;;;;;;8.23;69.29;102706.06;691662;28;137245;-63
2022/11/12 01:21:20;;;;;;;899.47;836.67;;;;;;;8.22;69.41;102713.25;691671;28;137739;-63
2022/11/12 01:22:00;;;;;;;888.65;826.15;;;;;;;8.20;69.35;102704.44;691792;28;137434;-63
2022/11/12 01:22:40;;;;;;;895.15;832.45;;;;;;;8.20;69.64;102703.59;693665;28;138346;-63
2022/11/12 01:23:21;;;;;;;878.55;816.28;;;;;;;8.18;69.15;102711.78;693766;28;158924;-63
2022/11/12 01:24:00;;;;;;;889.25;826.65;;;;;;;8.18;69.62;102705.50;693683;28;156208;-63
2022/11/12 01:24:41;;;;;;;887.15;824.70;;;;;;;8.18;69.40;102708.19;694402;28;137662;-63
2022/11/12 01:25:23;;;;;;;875.55;813.55;;;;;;;8.16;69.45;102702.06;694545;28;136045;-63
2022/11/12 01:26:04;;;;;;;857.67;796.08;;;;;;;8.15;69.61;102706.63;691637;28;137439;-63
2022/11/12 01:26:45;;;;;;;873.88;811.90;;;;;;;8.13;69.40;102703.16;691550;28;137565;-61
2022/11/12 01:27:26;;;;;;;856.00;794.47;;;;;;;8.12;69.78;102707.69;691588;28;138078;-63
2022/11/12 01:28:06;;;;;;;858.42;796.92;;;;;;;8.10;69.73;102704.25;690833;28;159039;-64
2022/11/12 01:28:47;;;;;;;857.22;795.72;;;;;;;8.09;69.64;102702.53;691240;28;137469;-64
2022/11/12 01:29:27;;;;;;;844.20;783.25;;;;;;;8.09;69.48;102702.53;689667;28;137363;-63
2022/11/12 01:30:09;;;;;;;852.22;790.92;;;;;;;8.08;69.40;102703.50;687944;28;161261;-64
2022/11/12 01:30:49;;;;;;;852.55;791.10;;;;;;;8.08;69.66;102705.34;688755;28;136897;-64
2022/11/12 01:31:31;;;;;;;886.28;823.88;;;;;;;8.06;69.75;102701.91;689320;28;137681;-64
2022/11/12 01:32:11;;;;;;;868.88;806.92;;;;;;;8.06;69.75;102708.13;688979;28;137434;-64
2022/11/12 01:32:51;;;;;;;866.40;804.58;;;;;;;8.07;69.63;102711.66;691677;28;135999;-62
2022/11/12 01:33:31;;;;;;;892.22;829.53;;;;;;;8.05;69.94;102706.41;691705;28;135716;-64
2022/11/12 01:34:12;;;;;;;873.40;811.22;;;;;;;8.05;69.73;102708.25;690855;28;157097;-64
2022/11/12 01:34:52;;;;;;;886.30;823.65;;;;;;;8.05;69.74;102705.56;691430;28;137471;-64
2022/11/12 01:35:33;;;;;;;873.97;811.95;;;;;;;8.06;70.08;102702.75;690953;28;160508;-64
2022/11/12 01:36:13;;;;;;;881.47;819.28;;;;;;;8.04;69.99;102702.00;691619;28;138439;-64
2022/11/12 01:36:54;;;;;;;882.40;820.13;;;;;;;8.08;70.10;102708.03;690475;28;160475;-64
2022/11/12 01:37:34;;;;;;;859.38;797.72;;;;;;;8.09;69.88;102701.69;690572;28;136974;-64
2022/11/12 01:38:13;;;;;;;859.85;798.22;;;;;;;8.09;69.87;102710.59;688864;28;138809;-63
2022/11/12 01:38:55;;;;;;;862.47;800.88;;;;;;;8.09;69.71;102713.28;690606;28;157467;-64
2022/11/12 01:39:34;;;;;;;876.45;814.33;;;;;;;8.09;69.96;102707.91;690961;28;158894;-62
2022/11/12 01:40:15;;;;;;;869.20;807.33;;;;;;;8.10;69.54;102708.75;691714;28;137223;-63
2022/11/12 01:40:56;;;;;;;861.67;800.00;;;;;;;8.09;69.62;102715.97;691732;28;137555;-62
2022/11/12 01:41:38;;;;;;;871.13;809.13;;;;;;;8.06;69.26;102708.13;691691;28;137721;-64
2022/11/12 01:42:18;;;;;;;882.08;819.78;;;;;;;8.06;69.26;102716.22;691749;28;137505;-64
2022/11/12 01:43:00;;;;;;;904.50;841.50;;;;;;;8.07;69.35;102714.38;691735;28;137636;-64
2022/11/12 01:43:40;;;;;;;866.85;804.95;;;;;;;8.06;69.16;102715.34;691145;28;135918;-62
2022/11/12 01:44:22;;;;;;;886.80;824.38;;;;;;;8.02;69.30;102709.31;691707;28;137496;-64
2022/11/12 01:45:14;;;;;;;885.10;822.83;;;;;;;8.03;69.51;102710.19;691777;28;137465;-64
2022/11/12 01:45:55;;;;;;;863.80;802.00;;;;;;;8.03;69.33;102718.28;688720;28;137434;-64
2022/11/12 01:46:45;;;;;;;843.08;781.90;;;;;;;7.99;69.42;102720.31;688601;28;135900;-64
2022/11/12 01:47:29;;;;;;;876.53;814.17;;;;;;;8.00;69.12;102719.34;688771;28;138256;-63
2022/11/12 01:48:13;;;;;;;862.83;801.03;;;;;;;8.01;69.58;102726.47;688638;28;137535;-64
2022/11/12 01:48:55;;;;;;;864.58;802.75;;;;;;;8.00;69.50;102718.50;687186;28;180047;-63
2022/11/12 01:49:40;;;;;;;838.38;777.58;;;;;;;7.99;69.24;102720.31;688889;28;137437;-64
2022/11/12 01:50:23;;;;;;;842.78;781.80;;;;;;;7.97;69.20;102724.94;690431;28;138099;-65
2022/11/12 01:51:05;;;;;;;851.38;790.03;;;;;;;7.94;68.96;102723.31;691703;28;137189;-64
2022/11/12 01:51:48;;;;;;;853.60;792.25;;;;;;;7.96;69.55;102723.22;691502;28;138373;-65
2022/11/12 01:52:32;;;;;;;862.45;800.90;;;;;;;7.92;69.25;102722.59;691675;28;137752;-65
2022/11/12 01:53:12;;;;;;;845.13;783.97;;;;;;;7.92;69.15;102719.91;691812;28;135978;-65
2022/11/12 01:53:55;;;;;;;820.58;760.08;;;;;;;7.89;69.23;102719.28;687680;28;158847;-65
2022/11/12 01:54:36;;;;;;;848.45;787.35;;;;;;;7.86;69.44;102717.66;688900;28;137739;-63
2022/11/12 01:55:19;;;;;;;850.95;789.83;;;;;;;7.85;69.51;102720.44;689009;28;136021;-63
2022/11/12 01:56:00;;;;;;;824.50;764.13;;;;;;;7.85;69.49;102728.53;688859;28;137533;-62
2022/11/12 01:56:40;;;;;;;842.15;781.38;;;;;;;7.84;69.54;102722.28;688690;28;138910;-63
2022/11/12 01:57:25;;;;;;;857.75;796.25;;;;;;;7.83;69.55;102720.56;688851;28;135770;-63
2022/11/12 01:58:09;;;;;;;834.53;773.95;;;;;;;7.82;69.51;102717.97;688817;28;137666;-64
2022/11/12 01:58:52;;;;;;;817.50;757.47;;;;;;;7.82;69.59;102721.56;688366;28;137278;-63
2022/11/12 01:59:38;;;;;;;791.90;732.60;;;;;;;7.76;69.45;102714.78;689020;28;137536;-62
2022/11/12 02:00:18;;;;;;;754.67;696.42;;;;;;;7.78;69.59;102725.41;688825;28;137701;-64
2022/11/12 02:00:58;;;;;;;780.10;720.88;;;;;;;7.74;69.47;102715.84;688976;28;137384;-64
2022/11/12 02:01:39;;;;;;;809.47;749.58;;;;;;;7.77;69.80;102718.31;688125;28;160417;-62
2022/11/12 02:02:19;;;;;;;805.25;745.30;;;;;;;7.78;69.78;102713.81;688949;28;135783;-62
2022/11/12 02:03:01;;;;;;;826.90;766.45;;;;;;;7.77;69.63;102718.31;688960;28;138378;-63
2022/11/12 02:03:41;;;;;;;839.63;778.70;;;;;;;7.78;69.95;102724.56;690529;28;135943;-63
2022/11/12 02:04:21;;;;;;;824.25;763.92;;;;;;;7.78;69.75;102724.56;691717;28;137660;-63
2022/11/12 02:05:03;;;;;;;874.75;812.67;;;;;;;7.77;70.08;102723.69;691302;28;137695;-63
2022/11/12 02:05:45;;;;;;;878.63;816.58;;;;;;;7.78;69.61;102722.72;691345;28;138651;-63
2022/11/12 02:06:25;;;;;;;793.17;734.17;;;;;;;7.77;69.72;102726.38;691602;28;137554;-62
2022/11/12 02:07:07;;;;;;;813.22;752.92;;;;;;;7.77;69.93;102718.31;691088;28;137730;-63
2022/11/12 02:07:47;;;;;;;811.17;751.17;;;;;;;7.73;69.58;102715.00;691541;28;137439;-63
2022/11/12 02:08:30;;;;;;;815.75;755.55;;;;;;;7.76;69.82;102722.84;694430;28;62543;-61
2022/11/12 02:09:11;;;;;;;792.20;732.85;;;;;;;7.74;69.77;102724.78;691031;28;157378;-63
2022/11/12 02:09:51;;;;;;;810.08;750.05;;;;;;;7.71;69.83;102719.63;691458;28;138043;-63
2022/11/12 02:10:32;;;;;;;811.75;751.80;;;;;;;7.71;69.83;102721.44;691647;28;138632;-63
2022/11/12 02:11:13;;;;;;;741.72;684.20;;;;;;;7.74;69.71;102723.91;691218;28;137759;-63
2022/11/12 02:11:53;;;;;;;779.03;720.17;;;;;;;7.73;69.88;102719.53;693050;28;89747;-63
2022/11/12 02:14:32;;;;;;;804.70;744.85;;;;;;;7.68;69.94;102713.59;690916;28;157792;-63
2022/11/12 02:15:12;;;;;;;760.30;701.50;;;;;;;7.73;70.00;102733.81;691691;28;137711;-63
2022/11/12 02:15:52;;;;;;;810.53;750.35;;;;;;;7.74;69.95;102729.28;691467;28;135826;-63
2022/11/12 02:16:34;;;;;;;751.25;692.88;;;;;;;7.73;69.98;102724.91;691612;28;138480;-63
2022/11/12 02:17:14;;;;;;;793.55;733.80;;;;;;;7.73;69.70;102725.75;691502;28;136414;-63
2022/11/12 02:17:54;;;;;;;810.92;750.75;;;;;;;7.71;69.84;102726.81;691394;28;137580;-63
2022/11/12 02:18:35;;;;;;;872.05;810.08;;;;;;;7.72;69.77;102720.47;691097;28;137375;-61
2022/11/12 02:19:15;;;;;;;855.25;793.72;;;;;;;7.72;70.11;102723.16;691540;28;137165;-63
2022/11/12 02:19:58;;;;;;;871.95;810.05;;;;;;;7.72;69.72;102724.00;688822;28;135580;-63
2022/11/12 02:20:38;;;;;;;857.28;795.83;;;;;;;7.72;69.70;102723.16;688763;28;137128;-64
2022/11/12 02:21:20;;;;;;;859.85;798.30;;;;;;;7.73;69.83;102720.38;688947;28;137783;-63
2022/11/12 02:22:00;;;;;;;862.00;800.38;;;;;;;7.72;69.57;102721.31;688898;28;137712;-63
2022/11/12 02:22:40;;;;;;;856.28;794.80;;;;;;;7.74;69.63;102726.59;688736;28;137722;-63
2022/11/12 02:23:20;;;;;;;861.83;800.13;;;;;;;7.75;69.91;102731.00;688959;28;137626;-64
2022/11/12 02:24:02;;;;;;;869.38;807.53;;;;;;;7.74;69.96;102731.97;688098;28;156396;-63
2022/11/12 02:24:41;;;;;;;875.03;813.20;;;;;;;7.77;69.86;102734.44;688842;28;135983;-62
2022/11/12 02:25:24;;;;;;;894.08;831.38;;;;;;;7.79;69.74;102726.25;688935;28;137522;-63
2022/11/12 02:26:03;;;;;;;899.42;836.60;;;;;;;7.80;69.51;102733.38;688792;28;137628;-62
2022/11/12 02:26:45;;;;;;;893.55;830.92;;;;;;;7.84;69.52;102729.50;688771;28;135985;-63
2022/11/12 02:27:27;;;;;;;883.85;821.35;;;;;;;7.83;69.59;102731.31;689159;28;137435;-62
2022/11/12 02:28:07;;;;;;;906.90;843.60;;;;;;;7.84;69.62;102740.28;691496;28;137709;-63
2022/11/12 02:28:47;;;;;;;868.33;806.40;;;;;;;7.83;69.25;102738.53;690341;28;159467;-63
2022/11/12 02:29:29;;;;;;;866.40;804.40;;;;;;;7.81;69.33;102738.66;694391;28;61151;-63
2022/11/12 02:30:10;;;;;;;886.92;824.45;;;;;;;7.81;69.20;102743.19;691665;28;137767;-63
2022/11/12 02:30:50;;;;;;;891.63;829.00;;;;;;;7.80;69.42;102736.06;691110;28;137143;-62
2022/11/12 02:31:31;;;;;;;890.25;827.92;;;;;;;7.80;69.49;102738.75;691341;28;137679;-63
2022/11/12 02:32:11;;;;;;;881.08;818.92;;;;;;;7.80;69.22;102734.22;691457;28;137701;-63
2022/11/12 02:32:51;;;;;;;875.03;812.83;;;;;;;7.80;69.16;102734.22;691525;28;136005;-63
2022/11/12 02:33:32;;;;;;;866.47;804.70;;;;;;;7.79;69.34;102737.91;691626;28;137405;-63
2022/11/12 02:34:11;;;;;;;879.92;817.70;;;;;;;7.80;69.21;102733.38;688331;28;157130;-63
2022/11/12 02:34:52;;;;;;;884.90;822.47;;;;;;;7.80;69.51;102736.06;688734;28;135972;-63
2022/11/12 02:35:32;;;;;;;871.97;809.88;;;;;;;7.80;69.47;102741.44;691048;28;85094;-63
2022/11/12 02:36:12;;;;;;;901.33;838.38;;;;;;;7.80;69.45;102736.06;690699;28;161566;-61
2022/11/12 02:36:54;;;;;;;916.50;852.88;;;;;;;7.80;69.52;102736.06;691435;28;137243;-64
2022/11/12 02:37:33;;;;;;;884.97;822.60;;;;;;;7.79;69.30;102739.72;690477;28;135981;-63
2022/11/12 02:38:13;;;;;;;882.17;820.00;;;;;;;7.78;69.10;102736.19;688654;28;138454;-64
2022/11/12 02:38:54;;;;;;;879.55;817.42;;;;;;;7.78;69.14;102736.19;688678;28;157305;-64
2022/11/12 02:39:33;;;;;;;904.80;841.88;;;;;;;7.77;69.26;102737.13;690836;28;160757;-63
2022/11/12 02:40:13;;;;;;;869.78;807.88;;;;;;;7.79;69.22;102739.72;691676;28;137701;-63
2022/11/12 02:40:56;;;;;;;868.65;806.78;;;;;;;7.78;69.41;102740.72;694079;28;62206;-64
2022/11/12 02:41:36;;;;;;;888.90;826.40;;;;;;;7.78;69.24;102741.56;691518;28;138009;-63
2022/11/12 02:42:16;;;;;;;856.15;794.58;;;;;;;7.78;69.37;102746.09;691409;28;137720;-63
2022/11/12 02:42:56;;;;;;;870.58;808.65;;;;;;;7.74;69.25;102751.69;691470;28;137481;-63
2022/11/12 02:43:36;;;;;;;867.47;805.53;;;;;;;7.74;69.33;102740.03;691422;28;138536;-63
2022/11/12 02:44:18;;;;;;;887.22;824.88;;;;;;;7.73;69.12;102743.72;697090;28;58610;-64
2022/11/12 02:44:58;;;;;;;883.42;821.03;;;;;;;7.72;69.35;102755.44;694122;28;138135;-63
2022/11/12 02:45:38;;;;;;;856.45;795.13;;;;;;;7.71;69.16;102751.03;694225;28;136023;-63
2022/11/12 02:46:19;;;;;;;864.70;803.05;;;;;;;7.68;69.24;102751.25;694265;28;137683;-62
2022/11/12 02:46:59;;;;;;;875.97;813.67;;;;;;;7.66;69.34;102747.81;693712;28;137529;-63
2022/11/12 02:47:39;;;;;;;859.65;798.08;;;;;;;7.69;69.18;102751.13;693457;28;160501;-63
2022/11/12 02:48:19;;;;;;;852.15;790.90;;;;;;;7.69;69.41;102755.66;694337;28;137607;-63
2022/11/12 02:48:59;;;;;;;844.13;782.95;;;;;;;7.68;69.34;102756.63;693427;28;156315;-64
2022/11/12 02:49:40;;;;;;;855.47;794.05;;;;;;;7.67;69.02;102755.75;691470;28;137621;-62
2022/11/12 02:50:20;;;;;;;869.60;807.58;;;;;;;7.66;69.43;102759.41;691118;28;137961;-63
2022/11/12 02:51:00;;;;;;;870.78;808.85;;;;;;;7.68;69.21;102759.31;691647;28;136008;-64
2022/11/12 02:51:41;;;;;;;860.80;799.20;;;;;;;7.67;69.49;102761.16;691451;28;137495;-64
2022/11/12 02:52:22;;;;;;;840.20;779.22;;;;;;;7.66;69.36;102759.41;688010;28;160626;-63
2022/11/12 02:53:02;;;;;;;845.60;784.33;;;;;;;7.64;69.02;102755.97;688720;28;137176;-64
2022/11/12 02:53:43;;;;;;;859.30;797.65;;;;;;;7.64;69.21;102755.13;688216;28;137624;-64
2022/11/12 02:54:23;;;;;;;845.03;783.88;;;;;;;7.63;69.54;102756.09;688811;28;136029;-63
2022/11/12 02:55:03;;;;;;;854.95;793.25;;;;;;;7.64;69.53;102766.75;688806;28;138313;-63
2022/11/12 02:55:52;;;;;;;850.58;789.10;;;;;;;7.62;69.17;102767.81;688758;28;137693;-63
2022/11/12 02:56:34;;;;;;;850.25;788.88;;;;;;;7.61;69.26;102766.97;688816;28;137558;-64
2022/11/12 02:57:13;;;;;;;864.47;802.38;;;;;;;7.60;69.31;102767.91;687788;28;161484;-63
2022/11/12 02:57:57;;;;;;;865.30;803.50;;;;;;;7.57;69.32;102770.84;688482;28;138371;-64
2022/11/12 02:58:37;;;;;;;846.40;785.33;;;;;;;7.56;69.24;102771.81;688466;28;136010;-63
2022/11/12 02:59:18;;;;;;;849.05;787.83;;;;;;;7.55;69.02;102767.38;690377;28;137589;-63
2022/11/12 02:59:57;;;;;;;782.63;723.80;;;;;;;7.53;69.13;102772.03;691090;28;137884;-64
2022/11/12 03:00:37;;;;;;;813.92;754.13;;;;;;;7.51;69.12;102766.75;691463;28;137370;-63
2022/11/12 03:01:18;;;;;;;827.30;766.90;;;;;;;7.49;69.38;102768.69;691597;28;138388;-64
2022/11/12 03:01:58;;;;;;;818.20;757.88;;;;;;;7.48;69.33;102766.97;693872;28;59904;-63
2022/11/12 03:02:41;;;;;;;838.78;777.78;;;;;;;7.45;69.26;102763.63;691508;28;137573;-64
2022/11/12 03:03:22;;;;;;;843.08;782.13;;;;;;;7.46;69.63;102768.91;691850;28;130977;-63
2022/11/12 03:04:02;;;;;;;848.22;787.00;;;;;;;7.46;69.54;102770.72;688010;28;156378;-63
2022/11/12 03:04:43;;;;;;;848.97;787.92;;;;;;;7.43;69.65;102769.13;688707;28;137691;-63
2022/11/12 03:05:22;;;;;;;835.67;774.78;;;;;;;7.42;69.44;102764.69;687761;28;158384;-63